Map

Track Data

SID SEASON NUMBER BASIN SUBBASIN NAME ISO_TIME NATURE LAT LON WMO_WIND WMO_PRES WMO_AGENCY TRACK_TYPE DIST2LAND LANDFALL IFLAG USA_AGENCY USA_ATCF_ID USA_LAT USA_LON USA_RECORD USA_STATUS USA_WIND USA_PRES USA_SSHS USA_R34_NE USA_R34_SE USA_R34_SW USA_R34_NW USA_R50_NE USA_R50_SE USA_R50_SW USA_R50_NW USA_R64_NE USA_R64_SE USA_R64_SW USA_R64_NW USA_POCI USA_ROCI USA_RMW USA_EYE TOKYO_LAT TOKYO_LON TOKYO_GRADE TOKYO_WIND TOKYO_PRES TOKYO_R50_DIR TOKYO_R50_LONG TOKYO_R50_SHORT TOKYO_R30_DIR TOKYO_R30_LONG TOKYO_R30_SHORT TOKYO_LAND CMA_LAT CMA_LON CMA_CAT CMA_WIND CMA_PRES HKO_LAT HKO_LON HKO_CAT HKO_WIND HKO_PRES NEWDELHI_LAT NEWDELHI_LON NEWDELHI_GRADE NEWDELHI_WIND NEWDELHI_PRES NEWDELHI_CI NEWDELHI_DP NEWDELHI_POCI REUNION_LAT REUNION_LON REUNION_TYPE REUNION_WIND REUNION_PRES REUNION_TNUM REUNION_CI REUNION_RMW REUNION_R34_NE REUNION_R34_SE REUNION_R34_SW REUNION_R34_NW REUNION_R50_NE REUNION_R50_SE REUNION_R50_SW REUNION_R50_NW REUNION_R64_NE REUNION_R64_SE REUNION_R64_SW REUNION_R64_NW BOM_LAT BOM_LON BOM_TYPE BOM_WIND BOM_PRES BOM_TNUM BOM_CI BOM_RMW BOM_R34_NE BOM_R34_SE BOM_R34_SW BOM_R34_NW BOM_R50_NE BOM_R50_SE BOM_R50_SW BOM_R50_NW BOM_R64_NE BOM_R64_SE BOM_R64_SW BOM_R64_NW BOM_ROCI BOM_POCI BOM_EYE BOM_POS_METHOD BOM_PRES_METHOD NADI_LAT NADI_LON NADI_CAT NADI_WIND NADI_PRES WELLINGTON_LAT WELLINGTON_LON WELLINGTON_WIND WELLINGTON_PRES DS824_LAT DS824_LON DS824_STAGE DS824_WIND DS824_PRES TD9636_LAT TD9636_LON TD9636_STAGE TD9636_WIND TD9636_PRES TD9635_LAT TD9635_LON TD9635_WIND TD9635_PRES TD9635_ROCI NEUMANN_LAT NEUMANN_LON NEUMANN_CLASS NEUMANN_WIND NEUMANN_PRES MLC_LAT MLC_LON MLC_CLASS MLC_WIND MLC_PRES USA_GUST BOM_GUST BOM_GUST_PER REUNION_GUST REUNION_GUST_PER USA_SEAHGT USA_SEARAD_NE USA_SEARAD_SE USA_SEARAD_SW USA_SEARAD_NW STORM_SPEED STORM_DIR
1854032S17059 1854 1 SI MM NOT_NAMED 1854-02-01 06:00:00 NR -17.3000 59.3000 reunion main 355 341 _____O________ -1 -17.3000 59.3000 99 9.90000 4 152
1854032S17059 1854 1 SI MM NOT_NAMED 1854-02-01 09:00:00 NR -17.4910 59.4108 main 341 328 _____P________ -1 -17.4910 59.4108 99 4 151
1854032S17059 1854 1 SI MM NOT_NAMED 1854-02-01 12:00:00 NR -17.6829 59.5232 main 328 316 _____P________ -1 -17.6829 59.5232 99 4 151
1854032S17059 1854 1 SI MM NOT_NAMED 1854-02-01 15:00:00 NR -17.8764 59.6383 main 316 306 _____P________ -1 -17.8764 59.6383 99 5 150
1854032S17059 1854 1 SI MM NOT_NAMED 1854-02-01 18:00:00 NR -18.0725 59.7574 main 314 306 _____P________ -1 -18.0725 59.7574 99 5 150
1854032S17059 1854 1 SI MM NOT_NAMED 1854-02-01 21:00:00 NR -18.2721 59.8818 main 306 299 _____P________ -1 -18.2721 59.8818 99 5 149
1854032S17059 1854 1 SI MM NOT_NAMED 1854-02-02 00:00:00 NR -18.4759 60.0129 main 300 296 _____P________ -1 -18.4759 60.0129 99 5 148
1854032S17059 1854 1 SI MM NOT_NAMED 1854-02-02 03:00:00 NR -18.6849 60.1518 main 305 299 _____P________ -1 -18.6849 60.1518 99 5 147
1854032S17059 1854 1 SI MM NOT_NAMED 1854-02-02 06:00:00 NR -18.9000 60.3000 reunion main 303 298 _____O________ -1 -18.9000 60.3000 99 9.90000 5 146
1854032S17059 1854 1 SI MM NOT_NAMED 1854-02-02 09:00:00 NR -19.1215 60.4582 main 312 308 _____P________ -1 -19.1215 60.4582 99 5 146
1854032S17059 1854 1 SI MM NOT_NAMED 1854-02-02 12:00:00 NR -19.3479 60.6251 main 313 309 _____P________ -1 -19.3479 60.6251 99 6 145
1854032S17059 1854 1 SI MM NOT_NAMED 1854-02-02 15:00:00 NR -19.5773 60.7988 main 323 323 _____P________ -1 -19.5773 60.7988 99 6 144
1854032S17059 1854 1 SI MM NOT_NAMED 1854-02-02 18:00:00 NR -19.8076 60.9772 main 338 337 _____P________ -1 -19.8076 60.9772 99 6 144
1854032S17059 1854 1 SI MM NOT_NAMED 1854-02-02 21:00:00 NR -20.0370 61.1586 main 356 354 _____P________ -1 -20.0370 61.1586 99 6 143
1854032S17059 1854 1 SI MM NOT_NAMED 1854-02-03 00:00:00 NR -20.2635 61.3408 main 364 364 _____P________ -1 -20.2635 61.3408 99 6 143
1854032S17059 1854 1 SI MM NOT_NAMED 1854-02-03 03:00:00 NR -20.4851 61.5220 main 386 386 _____P________ -1 -20.4851 61.5220 99 6 142
1854032S17059 1854 1 SI MM NOT_NAMED 1854-02-03 06:00:00 NR -20.7000 61.7000 reunion main 408 408 _____O________ -1 -20.7000 61.7000 99 9.90000 5 142
1854032S17059 1854 1 SI MM NOT_NAMED 1854-02-03 09:00:00 NR -20.9066 61.8734 main 431 431 _____P________ -1 -20.9066 61.8734 99 5 142
1854032S17059 1854 1 SI MM NOT_NAMED 1854-02-03 12:00:00 NR -21.1057 62.0423 main 445 445 _____P________ -1 -21.1057 62.0423 99 5 141
1854032S17059 1854 1 SI MM NOT_NAMED 1854-02-03 15:00:00 NR -21.2982 62.2074 main 470 470 _____P________ -1 -21.2982 62.2074 99 5 141
1854032S17059 1854 1 SI MM NOT_NAMED 1854-02-03 18:00:00 NR -21.4852 62.3693 main 496 496 _____P________ -1 -21.4852 62.3693 99 5 141
1854032S17059 1854 1 SI MM NOT_NAMED 1854-02-03 21:00:00 NR -21.6678 62.5289 main 512 512 _____P________ -1 -21.6678 62.5289 99 5 141
1854032S17059 1854 1 SI MM NOT_NAMED 1854-02-04 00:00:00 NR -21.8471 62.6867 main 535 535 _____P________ -1 -21.8471 62.6867 99 5 141
1854032S17059 1854 1 SI MM NOT_NAMED 1854-02-04 03:00:00 NR -22.0242 62.8435 main 552 552 _____P________ -1 -22.0242 62.8435 99 5 140
1854032S17059 1854 1 SI MM NOT_NAMED 1854-02-04 06:00:00 NR -22.2000 63.0000 reunion main 579 _____O________ -1 -22.2000 63.0000 99 9.90000 5 141

About IBTrACS Database

This database is a web-friendly format of International Best Track Archive for Climate Stewardship (IBTrACS), a global best track data archive curated by NOAA dating back to 1842.

Updated: 2021-10-25